Time;durP1;ratioP1;P1;durP2;ratioP2;P2;SDS_P1;SDS_P2;PMS_P1;PMS_P2;Temp;Humidity;BMP_temperature;BMP_pressure;BME280_temperature;BME280_humidity;BME280_pressure;Samples;Min_cycle;Max_cycle;Signal;HPM_P1;HPM_P2
2021/07/17 00:01:13;;;;;;;32.75;11.88;;;14.80;99.90;;;;;;5089637;28;20115;-81
2021/07/17 00:03:39;;;;;;;30.58;12.05;;;14.80;99.90;;;;;;5111176;28;20478;-80
2021/07/17 00:06:05;;;;;;;32.28;11.75;;;14.80;99.90;;;;;;5103715;28;20023;-79
2021/07/17 00:08:32;;;;;;;23.38;11.10;;;14.80;99.90;;;;;;5102669;28;20044;-82
2021/07/17 00:10:58;;;;;;;29.27;11.20;;;14.80;99.90;;;;;;5112546;28;20038;-82
2021/07/17 00:13:24;;;;;;;26.27;11.13;;;14.80;99.90;;;;;;5107337;28;20115;-81
2021/07/17 00:15:53;;;;;;;;;;;14.70;99.90;;;;;;5111138;28;20096;-82
2021/07/17 00:18:19;;;;;;;30.83;11.63;;;14.70;99.90;;;;;;5113616;28;19961;-83
2021/07/17 00:20:47;;;;;;;28.70;11.68;;;14.70;99.90;;;;;;5083317;28;20592;-82
2021/07/17 00:23:13;;;;;;;24.95;10.55;;;14.60;99.90;;;;;;5095873;28;20048;-80
2021/07/17 00:25:39;;;;;;;26.67;11.27;;;14.60;99.90;;;;;;5086576;28;20035;-81
2021/07/17 00:28:05;;;;;;;;;;;14.60;99.90;;;;;;5098070;28;20036;-80
2021/07/17 00:30:31;;;;;;;26.10;10.70;;;14.60;99.90;;;;;;5097645;28;19915;-81
2021/07/17 00:32:57;;;;;;;25.58;11.75;;;14.50;99.90;;;;;;5110928;28;20044;-83
2021/07/17 00:35:23;;;;;;;21.58;10.02;;;14.50;99.90;;;;;;5086215;28;20483;-80
2021/07/17 00:37:49;;;;;;;30.38;11.93;;;14.50;99.90;;;;;;5086975;28;20396;-79
2021/07/17 00:40:19;;;;;;;26.50;11.13;;;14.50;99.90;;;;;;5092156;28;20075;-81
2021/07/17 00:42:49;;;;;;;30.50;10.88;;;14.50;99.90;;;;;;5094618;28;20043;-82
2021/07/17 00:45:17;;;;;;;33.85;11.70;;;14.50;99.90;;;;;;5094635;28;20036;-83
2021/07/17 00:47:43;;;;;;;32.25;13.02;;;14.50;99.90;;;;;;5104929;28;20106;-78
2021/07/17 00:50:16;;;;;;;30.05;10.68;;;14.50;99.90;;;;;;5075647;28;20039;-81
2021/07/17 00:52:42;;;;;;;29.45;10.60;;;14.50;99.90;;;;;;5094766;28;20088;-78
2021/07/17 00:55:10;;;;;;;30.70;11.50;;;14.50;99.90;;;;;;5103596;28;20040;-79
2021/07/17 00:57:37;;;;;;;22.88;10.02;;;14.50;99.90;;;;;;5107960;28;20047;-78
2021/07/17 01:00:09;;;;;;;31.42;10.13;;;14.50;99.90;;;;;;5106595;28;20047;-81
2021/07/17 01:02:47;;;;;;;28.75;11.73;;;14.50;99.90;;;;;;5105275;28;20064;-80
2021/07/17 01:05:13;;;;;;;30.25;10.18;;;14.50;99.90;;;;;;5094270;28;20040;-81
2021/07/17 01:07:39;;;;;;;24.30;10.63;;;14.50;99.90;;;;;;5105769;28;20386;-83
2021/07/17 01:10:07;;;;;;;26.13;10.38;;;14.50;99.90;;;;;;5093986;28;20040;-78
2021/07/17 01:12:33;;;;;;;28.20;11.60;;;14.40;99.90;;;;;;5085155;28;20039;-81
2021/07/17 01:15:00;;;;;;;24.92;11.18;;;14.40;99.90;;;;;;5098721;28;20036;-78
2021/07/17 01:17:25;;;;;;;30.35;10.98;;;14.40;99.90;;;;;;5077984;28;20036;-80
2021/07/17 01:19:52;;;;;;;27.85;11.02;;;14.40;99.90;;;;;;5094793;28;20405;-79
2021/07/17 01:22:18;;;;;;;29.77;11.10;;;14.30;99.90;;;;;;5082339;28;20055;-78
2021/07/17 01:24:44;;;;;;;21.10;10.38;;;14.30;99.90;;;;;;5107156;28;20038;-82
2021/07/17 01:27:17;;;;;;;34.55;10.77;;;14.20;99.90;;;;;;5102933;28;20047;-80
2021/07/17 01:29:44;;;;;;;31.25;11.23;;;14.20;99.90;;;;;;5102144;28;20055;-82
2021/07/17 01:32:10;;;;;;;27.23;11.43;;;14.20;99.90;;;;;;5097825;28;20042;-77
2021/07/17 01:34:37;;;;;;;24.10;11.45;;;14.20;99.90;;;;;;5102968;28;20036;-82
2021/07/17 01:37:03;;;;;;;24.63;10.52;;;14.20;99.90;;;;;;5082469;28;21270;-79
2021/07/17 01:39:29;;;;;;;;;;;14.20;99.90;;;;;;5106998;28;20078;-80
2021/07/17 01:41:55;;;;;;;24.02;10.32;;;14.20;99.90;;;;;;5109493;28;19916;-81
2021/07/17 01:44:21;;;;;;;32.85;12.52;;;14.20;99.90;;;;;;5101970;28;20040;-80
2021/07/17 01:46:47;;;;;;;31.00;11.38;;;14.20;99.90;;;;;;5107505;28;20093;-82
2021/07/17 01:49:13;;;;;;;33.92;13.00;;;14.30;99.90;;;;;;5094181;28;20089;-79
2021/07/17 01:51:39;;;;;;;30.73;12.73;;;14.40;99.90;;;;;;5081504;28;20044;-81
2021/07/17 01:54:05;;;;;;;;;;;14.40;99.90;;;;;;5094336;28;20125;-84
2021/07/17 01:56:32;;;;;;;25.77;12.23;;;14.50;99.90;;;;;;5107048;28;19916;-79
2021/07/17 01:58:58;;;;;;;31.92;11.60;;;14.50;99.90;;;;;;5104299;28;20533;-80
2021/07/17 02:01:25;;;;;;;34.90;12.20;;;14.50;99.90;;;;;;5097153;28;20122;-80
2021/07/17 02:03:51;;;;;;;30.30;12.32;;;14.60;99.90;;;;;;5098346;28;20065;-82
2021/07/17 02:06:28;;;;;;;32.88;11.80;;;14.70;99.90;;;;;;5087893;28;20491;-80
2021/07/17 02:08:53;;;;;;;;;;;14.70;99.90;;;;;;5079796;28;20031;-81
2021/07/17 02:11:20;;;;;;;28.33;11.38;;;14.70;99.90;;;;;;5099529;28;20288;-81
2021/07/17 02:13:52;;;;;;;29.38;11.32;;;14.60;99.90;;;;;;5095343;28;20036;-82
2021/07/17 02:16:19;;;;;;;28.75;11.13;;;14.60;99.90;;;;;;5104116;28;20111;-83
2021/07/17 02:18:45;;;;;;;30.52;12.18;;;14.60;99.90;;;;;;5093893;28;20027;-83
2021/07/17 02:21:11;;;;;;;;;;;14.50;99.90;;;;;;5083643;28;20036;-81
2021/07/17 02:23:38;;;;;;;26.73;11.07;;;14.50;99.90;;;;;;5104063;28;19950;-84
2021/07/17 02:26:05;;;;;;;25.05;11.18;;;14.60;99.90;;;;;;5098850;28;20331;-83
2021/07/17 02:28:35;;;;;;;27.23;11.43;;;14.50;99.90;;;;;;5087686;28;20404;-81
2021/07/17 02:31:03;;;;;;;26.70;11.63;;;14.50;99.90;;;;;;5105389;28;20042;-81
2021/07/17 02:33:29;;;;;;;25.02;11.02;;;14.50;99.90;;;;;;5079741;28;20397;-80
2021/07/17 02:35:57;;;;;;;30.80;12.32;;;14.40;99.90;;;;;;5111593;28;20036;-81
2021/07/17 02:38:22;;;;;;;31.77;11.77;;;14.40;99.90;;;;;;5100258;28;20132;-81
2021/07/17 02:40:48;;;;;;;34.15;12.00;;;14.50;99.90;;;;;;5072646;28;20126;-81
2021/07/17 02:43:14;;;;;;;29.05;12.15;;;14.40;99.90;;;;;;5093941;28;20111;-83
2021/07/17 02:45:40;;;;;;;23.80;11.90;;;14.40;99.90;;;;;;5080182;28;20114;-83
2021/07/17 02:48:06;;;;;;;21.63;10.85;;;14.40;99.90;;;;;;5100601;28;20085;-83
2021/07/17 02:50:32;;;;;;;33.95;12.50;;;14.30;99.90;;;;;;5092507;28;20044;-81
2021/07/17 02:52:58;;;;;;;24.02;11.57;;;14.40;99.90;;;;;;5111658;28;20074;-79
2021/07/17 02:55:24;;;;;;;24.25;11.18;;;14.30;99.90;;;;;;5106587;28;20120;-80
2021/07/17 02:57:50;;;;;;;26.52;10.23;;;14.30;99.90;;;;;;5096388;28;20054;-81
2021/07/17 03:00:16;;;;;;;;;;;14.30;99.90;;;;;;5105563;28;20047;-81
2021/07/17 03:02:42;;;;;;;25.02;9.38;;;14.20;99.90;;;;;;5104862;28;19916;-79
2021/07/17 03:05:09;;;;;;;36.40;10.65;;;14.30;99.90;;;;;;5097080;28;20043;-79
2021/07/17 03:07:35;;;;;;;24.92;9.07;;;14.30;99.90;;;;;;5086875;28;20128;-80
2021/07/17 03:10:02;;;;;;;24.08;9.70;;;14.30;99.90;;;;;;5103995;28;20362;-82
2021/07/17 03:12:28;;;;;;;22.15;8.70;;;14.30;99.90;;;;;;5095581;28;20466;-84
2021/07/17 03:14:54;;;;;;;19.25;7.65;;;14.40;99.90;;;;;;5082966;28;20032;-83
2021/07/17 03:17:20;;;;;;;;;;;14.40;99.90;;;;;;5106888;28;20036;-81
2021/07/17 03:19:52;;;;;;;20.23;7.53;;;14.40;99.90;;;;;;5101236;28;20392;-83
2021/07/17 03:22:18;;;;;;;;;;;14.40;99.90;;;;;;5104930;28;20048;-81
2021/07/17 03:24:44;;;;;;;21.27;8.07;;;14.30;99.90;;;;;;5099931;28;19928;-84
2021/07/17 03:27:10;;;;;;;16.23;7.63;;;14.30;99.90;;;;;;5104337;28;20032;-83
2021/07/17 03:29:36;;;;;;;;;;;14.30;99.90;;;;;;5085783;28;20063;-80
2021/07/17 03:32:02;;;;;;;17.77;7.55;;;14.30;99.90;;;;;;5110909;28;20272;-80
2021/07/17 03:34:39;;;;;;;33.50;10.30;;;14.30;99.90;;;;;;5101524;28;20051;-79
2021/07/17 03:37:07;;;;;;;26.08;9.70;;;14.30;99.90;;;;;;5085671;28;20051;-82
2021/07/17 03:39:33;;;;;;;32.60;11.27;;;14.40;99.90;;;;;;5071418;28;20032;-79
2021/07/17 03:41:59;;;;;;;25.50;9.85;;;14.50;99.90;;;;;;5097367;28;20035;-82
2021/07/17 03:44:27;;;;;;;32.47;10.57;;;14.50;99.90;;;;;;5076611;28;20070;-81
2021/07/17 03:46:53;;;;;;;32.72;9.88;;;14.60;99.90;;;;;;5091811;28;20473;-82
2021/07/17 03:49:19;;;;;;;26.13;10.38;;;14.60;99.90;;;;;;5089075;28;20038;-80
2021/07/17 03:51:44;;;;;;;33.20;11.02;;;14.70;99.90;;;;;;5104091;28;20055;-79
2021/07/17 03:54:10;;;;;;;27.13;10.73;;;14.80;99.90;;;;;;5081340;28;20465;-81
2021/07/17 03:56:36;;;;;;;30.08;10.35;;;14.90;99.90;;;;;;5107492;28;20451;-84
2021/07/17 03:59:02;;;;;;;27.67;10.25;;;14.90;99.90;;;;;;5107627;28;20119;-85
2021/07/17 04:01:30;;;;;;;36.25;10.40;;;15.00;99.90;;;;;;5101746;28;20538;-82
2021/07/17 04:03:56;;;;;;;28.60;10.18;;;15.00;99.90;;;;;;5078126;28;20047;-82
2021/07/17 04:06:21;;;;;;;32.10;10.57;;;15.00;99.90;;;;;;5079360;28;20344;-80
2021/07/17 04:08:47;;;;;;;27.65;9.48;;;15.00;99.90;;;;;;5106289;28;20585;-79
2021/07/17 04:11:13;;;;;;;33.03;10.48;;;15.10;99.90;;;;;;5090139;28;20036;-80
2021/07/17 04:13:39;;;;;;;30.60;9.82;;;15.10;99.90;;;;;;5103537;28;20048;-80
2021/07/17 04:16:05;;;;;;;31.20;8.95;;;15.10;99.90;;;;;;5080785;28;20028;-82
2021/07/17 04:18:30;;;;;;;;;;;15.10;99.90;;;;;;5102105;28;20034;-83
2021/07/17 04:20:56;;;;;;;23.45;8.75;;;15.10;99.90;;;;;;5096314;28;19987;-79
2021/07/17 04:23:22;;;;;;;;;;;15.10;99.90;;;;;;5105217;28;20048;-78
2021/07/17 04:25:48;;;;;;;25.60;9.18;;;15.10;99.90;;;;;;5098973;28;19960;-80
2021/07/17 04:28:13;;;;;;;22.50;8.20;;;15.10;99.90;;;;;;5101084;28;20061;-79
2021/07/17 04:30:39;;;;;;;29.33;9.05;;;15.20;99.90;;;;;;5101067;28;20122;-79
2021/07/17 04:33:05;;;;;;;;;;;15.20;99.90;;;;;;5086389;28;20115;-79
2021/07/17 04:35:31;;;;;;;26.70;9.15;;;15.30;99.90;;;;;;5103816;28;19947;-81
2021/07/17 04:37:58;;;;;;;29.25;8.68;;;15.30;99.90;;;;;;5099278;28;20036;-79
2021/07/17 04:40:24;;;;;;;22.63;8.93;;;15.40;99.90;;;;;;5096689;28;20046;-82
2021/07/17 04:42:50;;;;;;;18.65;8.80;;;15.40;99.90;;;;;;5111998;28;20114;-82
2021/07/17 04:45:16;;;;;;;24.02;8.55;;;15.50;99.90;;;;;;5086440;28;20067;-80
2021/07/17 04:47:42;;;;;;;24.25;8.43;;;15.60;99.90;;;;;;5105746;28;20084;-80
2021/07/17 04:50:08;;;;;;;28.13;8.43;;;15.70;99.90;;;;;;5094606;28;20042;-81
2021/07/17 04:52:34;;;;;;;26.33;8.68;;;15.80;99.90;;;;;;5105428;28;20067;-80
2021/07/17 04:55:00;;;;;;;26.02;8.30;;;15.90;99.90;;;;;;5113067;28;20060;-84
2021/07/17 04:57:25;;;;;;;;;;;15.90;99.90;;;;;;5088926;28;20054;-81
2021/07/17 04:59:51;;;;;;;26.30;8.70;;;16.00;99.90;;;;;;5107128;28;20018;-78
2021/07/17 05:02:17;;;;;;;21.88;7.85;;;16.10;99.90;;;;;;5090056;28;20032;-80
2021/07/17 05:04:43;;;;;;;21.17;8.30;;;16.10;99.90;;;;;;5093108;28;20523;-85
2021/07/17 05:07:08;;;;;;;18.02;8.48;;;16.30;99.90;;;;;;5111812;28;20107;-78
2021/07/17 05:09:34;;;;;;;17.02;7.22;;;16.40;99.90;;;;;;5084873;28;20040;-79
2021/07/17 05:12:00;;;;;;;18.38;8.13;;;16.40;99.90;;;;;;5082923;28;20525;-80
2021/07/17 05:14:25;;;;;;;;;;;16.50;99.90;;;;;;5086125;28;20050;-78
2021/07/17 05:16:51;;;;;;;23.50;7.65;;;16.60;99.90;;;;;;5106567;28;19939;-82
2021/07/17 05:19:18;;;;;;;;;;;16.70;99.90;;;;;;5106037;28;20107;-82
2021/07/17 05:21:44;;;;;;;21.05;7.45;;;16.70;99.90;;;;;;5089487;28;19919;-81
2021/07/17 05:24:10;;;;;;;23.00;7.43;;;16.80;99.90;;;;;;5108057;28;20058;-83
2021/07/17 05:26:36;;;;;;;12.80;6.43;;;16.90;99.90;;;;;;5098922;28;20036;-81
2021/07/17 05:29:02;;;;;;;18.75;6.20;;;16.90;99.90;;;;;;5106430;28;20668;-80
2021/07/17 05:31:28;;;;;;;20.13;6.60;;;17.00;99.90;;;;;;5112213;28;20027;-81
2021/07/17 05:33:54;;;;;;;22.60;8.25;;;17.00;99.90;;;;;;5107018;28;20028;-85
2021/07/17 05:36:19;;;;;;;17.80;6.38;;;17.10;99.90;;;;;;5095873;28;20062;-79
2021/07/17 05:38:47;;;;;;;16.60;6.03;;;17.10;99.90;;;;;;5097286;28;20046;-82
2021/07/17 05:41:13;;;;;;;14.20;5.75;;;17.20;99.90;;;;;;5106765;28;20036;-82
2021/07/17 05:43:38;;;;;;;;;;;17.30;99.90;;;;;;5109793;28;20472;-82
2021/07/17 05:46:04;;;;;;;12.18;5.50;;;17.30;99.90;;;;;;5112758;28;19922;-80
2021/07/17 05:48:30;;;;;;;;;;;17.40;99.90;;;;;;5113692;28;20446;-81
2021/07/17 05:50:55;;;;;;;14.20;6.90;;;17.40;99.90;;;;;;5100678;28;19915;-83
2021/07/17 05:53:22;;;;;;;;;;;17.50;99.90;;;;;;5108995;28;20040;-78
2021/07/17 05:55:47;;;;;;;14.07;5.68;;;17.50;99.90;;;;;;5106150;28;19941;-79
2021/07/17 05:58:13;;;;;;;15.70;6.07;;;17.60;99.90;;;;;;5108865;28;20035;-82
2021/07/17 06:00:42;;;;;;;;;;;17.60;99.90;;;;;;5110763;28;20073;-80
2021/07/17 06:03:09;;;;;;;18.42;5.47;;;17.70;99.90;;;;;;5110956;28;19916;-79
2021/07/17 06:05:35;;;;;;;13.75;5.13;;;17.80;99.90;;;;;;5108227;28;20602;-82
2021/07/17 06:08:00;;;;;;;;;;;17.80;99.90;;;;;;5111797;28;20260;-80
2021/07/17 06:10:26;;;;;;;12.98;5.40;;;17.90;99.90;;;;;;5097663;28;20007;-81
2021/07/17 06:12:52;;;;;;;;;;;17.90;99.90;;;;;;5090775;28;20036;-85
2021/07/17 06:15:18;;;;;;;18.85;5.18;;;17.90;99.90;;;;;;5111832;28;19919;-82
2021/07/17 06:17:44;;;;;;;;;;;18.00;99.90;;;;;;5110018;28;20157;-81
2021/07/17 06:20:10;;;;;;;15.75;5.10;;;18.10;99.90;;;;;;5113034;28;20294;-83
2021/07/17 06:22:36;;;;;;;12.65;5.28;;;18.10;99.90;;;;;;5091916;28;20148;-82
2021/07/17 06:25:03;;;;;;;13.70;5.10;;;18.10;99.90;;;;;;5112806;28;20061;-79
2021/07/17 06:27:29;;;;;;;14.23;5.18;;;18.20;99.90;;;;;;5107337;28;20067;-79
2021/07/17 06:29:55;;;;;;;;;;;18.30;99.90;;;;;;5104259;28;20132;-82
2021/07/17 06:32:21;;;;;;;9.25;4.63;;;18.40;99.90;;;;;;5096726;28;19962;-79
2021/07/17 06:34:47;;;;;;;10.52;5.07;;;18.50;99.90;;;;;;5078143;28;20040;-80
2021/07/17 06:37:13;;;;;;;;;;;18.60;99.90;;;;;;5081270;28;20038;-81
2021/07/17 06:39:39;;;;;;;9.73;4.93;;;18.60;99.90;;;;;;5094141;28;20132;-82
2021/07/17 06:42:04;;;;;;;;;;;18.70;99.90;;;;;;5082846;28;20040;-79
2021/07/17 06:44:30;;;;;;;11.32;4.93;;;18.80;99.90;;;;;;5105402;28;19973;-80
2021/07/17 06:46:56;;;;;;;;;;;18.80;99.90;;;;;;5102068;28;20039;-80
2021/07/17 06:49:22;;;;;;;14.77;5.03;;;18.90;99.90;;;;;;5103448;28;20018;-82
2021/07/17 06:51:47;;;;;;;;;;;18.90;99.90;;;;;;5083302;28;20549;-82
2021/07/17 06:54:14;;;;;;;13.25;4.57;;;18.90;99.90;;;;;;5086019;28;20352;-79
2021/07/17 06:56:39;;;;;;;;;;;19.00;99.90;;;;;;5086190;28;20039;-83
2021/07/17 06:59:05;;;;;;;11.73;4.47;;;19.10;99.90;;;;;;5105600;28;20082;-83
2021/07/17 07:01:32;;;;;;;;;;;19.20;99.90;;;;;;5104227;28;20484;-82
2021/07/17 07:03:58;;;;;;;;;;;19.20;99.90;;;;;;5091877;28;20352;-80
2021/07/17 07:06:24;;;;;;;12.20;4.57;;;19.30;99.90;;;;;;5104026;28;19963;-79
2021/07/17 07:08:50;;;;;;;;;;;19.30;99.90;;;;;;5112358;28;20545;-81
2021/07/17 07:11:15;;;;;;;15.70;4.65;;;19.40;99.90;;;;;;5096735;28;19911;-81
2021/07/17 07:13:41;;;;;;;;;;;19.50;99.90;;;;;;5097257;28;20040;-78
2021/07/17 07:16:07;;;;;;;10.23;4.30;;;19.50;99.90;;;;;;5086914;28;20365;-80
2021/07/17 07:18:32;;;;;;;;;;;19.70;99.90;;;;;;5111167;28;20432;-81
2021/07/17 07:20:58;;;;;;;10.73;4.47;;;19.70;99.90;;;;;;5111120;28;20302;-79
2021/07/17 07:23:25;;;;;;;11.63;4.53;;;19.80;99.90;;;;;;5087554;28;20044;-81
2021/07/17 07:25:51;;;;;;;9.30;4.20;;;19.80;99.90;;;;;;5090724;28;20238;-81
2021/07/17 07:28:17;;;;;;;;;;;19.80;99.90;;;;;;5110445;28;20062;-82
2021/07/17 07:30:42;;;;;;;12.88;4.65;;;19.80;99.90;;;;;;5108217;28;19953;-79
2021/07/17 07:33:08;;;;;;;;;;;20.00;99.90;;;;;;5076870;28;20046;-81
2021/07/17 07:35:34;;;;;;;14.93;5.00;;;20.00;99.90;;;;;;5089547;28;20284;-81
2021/07/17 07:38:00;;;;;;;11.23;4.20;;;20.10;99.90;;;;;;5113086;28;20039;-80
2021/07/17 07:40:29;;;;;;;7.30;4.10;;;20.20;99.90;;;;;;5079357;28;20040;-83
2021/07/17 07:42:55;;;;;;;9.52;4.18;;;20.30;99.90;;;;;;5105429;28;20082;-84
2021/07/17 07:45:21;;;;;;;12.45;4.32;;;20.40;99.90;;;;;;5100581;28;20039;-81
2021/07/17 07:47:48;;;;;;;14.50;4.72;;;20.40;99.90;;;;;;5079948;28;20032;-82
2021/07/17 07:50:14;;;;;;;12.80;4.47;;;20.40;99.90;;;;;;5081644;28;20130;-79
2021/07/17 07:52:40;;;;;;;8.43;4.22;;;20.40;99.90;;;;;;5104774;28;20537;-80
2021/07/17 07:55:07;;;;;;;;;;;20.60;99.90;;;;;;5087444;28;20465;-82
2021/07/17 07:57:33;;;;;;;9.80;3.70;;;20.50;99.90;;;;;;5100656;28;19916;-80
2021/07/17 08:00:00;;;;;;;10.23;3.90;;;20.60;99.90;;;;;;5085714;28;20061;-81
2021/07/17 08:02:26;;;;;;;13.00;4.85;;;20.70;99.90;;;;;;5108157;28;20434;-80
2021/07/17 08:04:53;;;;;;;7.57;3.53;;;20.70;99.90;;;;;;5084903;28;20047;-80
2021/07/17 08:07:18;;;;;;;14.55;4.30;;;20.80;99.90;;;;;;5092181;28;20036;-80
2021/07/17 08:09:44;;;;;;;13.90;4.45;;;20.90;99.90;;;;;;5104512;28;20433;-80
2021/07/17 08:12:10;;;;;;;12.20;4.15;;;20.90;99.90;;;;;;5105887;28;20040;-81
2021/07/17 08:14:36;;;;;;;;;;;21.00;99.90;;;;;;5090067;28;20032;-79
2021/07/17 08:17:04;;;;;;;9.02;3.78;;;21.00;99.90;;;;;;5093548;28;20324;-80
2021/07/17 08:19:30;;;;;;;11.90;3.70;;;21.10;99.90;;;;;;5108417;28;20114;-82
2021/07/17 08:21:56;;;;;;;8.27;3.10;;;21.10;99.90;;;;;;5090049;28;20064;-84
2021/07/17 08:24:23;;;;;;;10.88;3.97;;;21.20;99.90;;;;;;5089867;28;20036;-84
2021/07/17 08:26:49;;;;;;;5.88;3.50;;;21.20;99.90;;;;;;5084218;28;20062;-85
2021/07/17 08:29:14;;;;;;;7.47;3.75;;;21.30;99.90;;;;;;5089141;28;20456;-82
2021/07/17 08:31:40;;;;;;;7.97;3.25;;;21.40;99.90;;;;;;5106672;28;20039;-81
2021/07/17 08:34:06;;;;;;;5.85;3.00;;;21.50;99.90;;;;;;5114794;28;20043;-82
2021/07/17 08:36:33;;;;;;;;;;;21.40;99.90;;;;;;5087326;28;20043;-84
2021/07/17 08:38:59;;;;;;;6.00;2.88;;;21.40;99.90;;;;;;5099953;28;19999;-86
2021/07/17 08:41:26;;;;;;;14.40;4.03;;;21.50;99.90;;;;;;5082989;28;20092;-83
2021/07/17 08:43:55;;;;;;;7.68;3.10;;;21.50;99.90;;;;;;5114837;28;20032;-83
2021/07/17 08:46:22;;;;;;;6.18;2.95;;;21.50;99.90;;;;;;5109495;28;20374;-83
2021/07/17 08:48:49;;;;;;;9.77;3.72;;;21.60;99.90;;;;;;5108971;28;20118;-84
2021/07/17 08:51:15;;;;;;;9.43;3.97;;;21.60;99.90;;;;;;5108272;28;20057;-84
2021/07/17 08:53:44;;;;;;;8.18;3.20;;;21.60;99.90;;;;;;5108265;28;20046;-85
2021/07/17 08:56:10;;;;;;;8.88;3.85;;;21.60;99.90;;;;;;5096609;28;20036;-81
2021/07/17 08:58:36;;;;;;;8.65;3.33;;;21.60;99.90;;;;;;5105974;28;20028;-86
2021/07/17 09:01:02;;;;;;;6.97;3.38;;;21.60;99.90;;;;;;5107001;28;20040;-85
2021/07/17 09:03:29;;;;;;;11.18;3.85;;;21.60;99.90;;;;;;5115382;28;20027;-80
2021/07/17 09:05:55;;;;;;;7.53;3.35;;;21.60;99.90;;;;;;5109342;28;20043;-84
2021/07/17 09:08:22;;;;;;;6.95;2.88;;;21.60;99.90;;;;;;5093295;28;20092;-83
2021/07/17 09:10:49;;;;;;;9.00;3.28;;;21.60;99.90;;;;;;5102974;28;20166;-84
2021/07/17 09:13:22;;;;;;;10.35;3.20;;;21.70;99.90;;;;;;5080363;28;20067;-80
2021/07/17 09:16:08;;;;;;;7.72;3.30;;;21.70;99.90;;;;;;5084774;28;20054;-84
2021/07/17 09:18:49;;;;;;;11.73;3.57;;;21.80;99.90;;;;;;5096293;28;20036;-82
2021/07/17 09:21:22;;;;;;;9.15;3.55;;;21.90;99.90;;;;;;5095715;28;20035;-83
2021/07/17 09:23:54;;;;;;;8.27;3.10;;;21.90;99.90;;;;;;5093590;28;20902;-82
2021/07/17 09:26:32;;;;;;;7.85;3.10;;;22.00;99.90;;;;;;5100727;28;20031;-82
2021/07/17 09:29:09;;;;;;;7.72;3.00;;;21.90;99.90;;;;;;5109371;28;20024;-84
2021/07/17 09:31:38;;;;;;;6.75;3.20;;;21.90;99.90;;;;;;5115136;28;20042;-81
2021/07/17 09:34:09;;;;;;;7.28;3.38;;;22.00;99.90;;;;;;5113463;28;20039;-83
2021/07/17 09:36:52;;;;;;;10.10;3.65;;;22.00;99.90;;;;;;5111069;28;20070;-82
2021/07/17 09:39:19;;;;;;;7.60;3.25;;;21.90;99.90;;;;;;5116851;28;20130;-82
2021/07/17 09:42:14;;;;;;;6.63;2.90;;;21.90;99.90;;;;;;5117458;28;20050;-82
2021/07/17 09:44:41;;;;;;;5.80;3.03;;;22.00;99.90;;;;;;5113077;28;20039;-84
2021/07/17 09:47:23;;;;;;;10.50;3.60;;;22.00;99.90;;;;;;5091701;28;20036;-83
2021/07/17 09:49:49;;;;;;;12.98;3.30;;;22.10;99.90;;;;;;5093299;28;20046;-82
2021/07/17 09:52:17;;;;;;;8.13;3.00;;;22.10;99.90;;;;;;5105474;28;20036;-83
2021/07/17 09:55:09;;;;;;;8.70;3.30;;;22.20;99.90;;;;;;5092681;28;20071;-81
2021/07/17 09:57:35;;;;;;;7.85;3.00;;;22.30;99.90;;;;;;5111866;28;20056;-84
2021/07/17 10:00:17;;;;;;;7.47;2.85;;;22.30;99.90;;;;;;5081914;28;20086;-82
2021/07/17 10:02:43;;;;;;;6.45;2.60;;;22.40;99.90;;;;;;5115863;28;20044;-83
2021/07/17 10:05:15;;;;;;;7.55;2.92;;;22.40;99.90;;;;;;5112991;28;20054;-83
2021/07/17 10:07:41;;;;;;;6.63;2.80;;;22.50;99.90;;;;;;5092680;28;20040;-84
2021/07/17 10:10:07;;;;;;;6.78;2.40;;;22.50;99.90;;;;;;5112863;28;20438;-82
2021/07/17 10:12:35;;;;;;;5.13;2.40;;;22.50;99.90;;;;;;5094946;28;20119;-82
2021/07/17 10:15:06;;;;;;;5.18;2.60;;;22.60;99.90;;;;;;5112322;28;20040;-83
2021/07/17 10:17:41;;;;;;;4.88;2.70;;;22.70;99.90;;;;;;5115103;28;20035;-86
2021/07/17 10:20:10;;;;;;;5.00;2.63;;;22.70;99.90;;;;;;5105024;28;20031;-84
2021/07/17 10:22:37;;;;;;;7.00;2.65;;;22.70;99.90;;;;;;5101217;28;20047;-82
2021/07/17 10:25:08;;;;;;;5.05;2.47;;;22.60;99.90;;;;;;5094661;28;20053;-83
2021/07/17 10:27:34;;;;;;;5.70;2.88;;;22.60;99.90;;;;;;5113378;28;20066;-83
2021/07/17 10:30:03;;;;;;;5.47;2.30;;;22.50;99.90;;;;;;5094284;28;20402;-81
2021/07/17 10:32:31;;;;;;;5.75;2.40;;;22.50;99.90;;;;;;5113136;28;20043;-82
2021/07/17 10:34:56;;;;;;;5.20;2.85;;;22.50;99.90;;;;;;5090748;28;20043;-86
2021/07/17 10:37:28;;;;;;;5.28;2.42;;;22.50;99.90;;;;;;5114168;28;20031;-85
2021/07/17 10:40:10;;;;;;;6.85;2.45;;;22.70;99.90;;;;;;5112446;28;20096;-83
2021/07/17 10:42:38;;;;;;;5.85;2.40;;;22.70;99.90;;;;;;5113909;28;20040;-81
2021/07/17 10:45:05;;;;;;;7.65;2.25;;;22.70;99.90;;;;;;5113348;28;20088;-83
2021/07/17 10:47:39;;;;;;;6.60;2.40;;;22.70;99.90;;;;;;5093849;28;20035;-83
2021/07/17 10:50:08;;;;;;;5.97;2.30;;;22.80;99.90;;;;;;5111630;28;20369;-84
2021/07/17 10:52:44;;;;;;;5.40;2.60;;;22.90;99.90;;;;;;5112275;28;20061;-83
2021/07/17 10:55:33;;;;;;;6.03;2.70;;;22.90;99.90;;;;;;5098569;28;20031;-85
2021/07/17 10:58:24;;;;;;;4.05;2.20;;;22.90;99.90;;;;;;5108406;28;20042;-82
2021/07/17 11:00:56;;;;;;;6.65;2.40;;;23.00;99.90;;;;;;5075385;28;20269;-85
2021/07/17 11:03:24;;;;;;;5.55;2.35;;;22.90;99.90;;;;;;5093005;28;20040;-81
2021/07/17 11:05:50;;;;;;;5.25;2.60;;;22.90;99.90;;;;;;5093581;28;20050;-83
2021/07/17 11:08:33;;;;;;;4.55;2.10;;;23.00;99.90;;;;;;5094184;28;20396;-81
2021/07/17 11:11:02;;;;;;;7.78;2.22;;;22.90;99.90;;;;;;5111913;28;20062;-84
2021/07/17 11:13:34;;;;;;;6.20;2.70;;;22.90;99.90;;;;;;5113702;28;20041;-81
2021/07/17 11:16:01;;;;;;;4.80;2.95;;;23.00;99.90;;;;;;5084830;28;20032;-84
2021/07/17 11:18:35;;;;;;;5.20;2.10;;;23.10;99.90;;;;;;5101819;28;20035;-82
2021/07/17 11:21:04;;;;;;;3.92;2.00;;;23.10;99.90;;;;;;5112390;28;20036;-82
2021/07/17 11:23:38;;;;;;;5.53;2.20;;;23.20;99.90;;;;;;5111456;28;20116;-82
2021/07/17 11:26:14;;;;;;;5.25;1.98;;;23.40;99.90;;;;;;5103556;28;20050;-82
2021/07/17 11:28:51;;;;;;;7.00;2.30;;;23.50;99.90;;;;;;5091813;28;20032;-82
2021/07/17 11:31:32;;;;;;;6.88;2.30;;;23.50;99.90;;;;;;5114266;28;20107;-82
2021/07/17 11:34:14;;;;;;;4.03;2.20;;;23.50;99.90;;;;;;5112108;28;20515;-83
2021/07/17 11:36:46;;;;;;;4.50;1.95;;;23.60;99.90;;;;;;5103762;28;20307;-82
2021/07/17 11:39:17;;;;;;;4.43;2.13;;;23.60;99.90;;;;;;5089391;28;20036;-84
2021/07/17 11:41:43;;;;;;;5.60;2.30;;;23.60;99.90;;;;;;5102902;28;20044;-82
2021/07/17 11:44:10;;;;;;;5.60;2.38;;;23.60;99.90;;;;;;5091930;28;20075;-84
2021/07/17 11:46:36;;;;;;;5.07;2.00;;;23.60;99.90;;;;;;5091859;28;20042;-84
2021/07/17 11:49:10;;;;;;;6.63;2.33;;;23.70;99.90;;;;;;5101474;28;20074;-83
2021/07/17 11:51:50;;;;;;;3.42;1.98;;;23.70;99.90;;;;;;5087519;28;20036;-84
2021/07/17 11:54:31;;;;;;;4.10;2.10;;;23.70;99.90;;;;;;5086059;28;20032;-81
2021/07/17 11:57:19;;;;;;;4.38;1.85;;;23.80;99.90;;;;;;5106034;28;20468;-84
2021/07/17 11:59:57;;;;;;;4.35;1.92;;;23.90;99.90;;;;;;5094071;28;20103;-81
2021/07/17 12:02:25;;;;;;;4.18;1.90;;;23.90;99.90;;;;;;5090535;28;20036;-83
2021/07/17 12:04:56;;;;;;;3.13;1.90;;;24.00;99.90;;;;;;5094455;28;20040;-80
2021/07/17 12:07:28;;;;;;;5.45;2.35;;;24.00;99.90;;;;;;5117662;28;20379;-81
2021/07/17 12:10:02;;;;;;;4.57;2.08;;;23.90;99.90;;;;;;5115101;28;20469;-84
2021/07/17 12:12:46;;;;;;;5.78;2.22;;;24.00;99.90;;;;;;5092874;28;20031;-83
2021/07/17 12:15:15;;;;;;;3.50;1.98;;;24.00;99.90;;;;;;5107815;28;20044;-82
2021/07/17 12:17:53;;;;;;;2.40;1.60;;;24.00;99.90;;;;;;5112066;28;20040;-82
2021/07/17 12:20:41;;;;;;;6.15;1.92;;;24.00;99.90;;;;;;5112391;28;20116;-84
2021/07/17 12:23:15;;;;;;;4.68;1.55;;;24.20;99.90;;;;;;5111579;28;20059;-82
2021/07/17 12:26:04;;;;;;;3.90;1.73;;;24.20;99.90;;;;;;5107883;28;20088;-85
2021/07/17 12:28:36;;;;;;;5.22;1.70;;;24.30;99.90;;;;;;5082541;28;20089;-84
2021/07/17 12:31:10;;;;;;;3.08;1.73;;;24.40;99.90;;;;;;5112663;28;20031;-82
2021/07/17 12:33:39;;;;;;;3.70;2.05;;;24.50;99.90;;;;;;5093732;28;20035;-84
2021/07/17 12:36:14;;;;;;;4.68;2.22;;;24.60;99.90;;;;;;5101663;28;20036;-82
2021/07/17 12:38:45;;;;;;;5.82;2.08;;;24.60;99.90;;;;;;5093596;28;20036;-84
2021/07/17 12:41:19;;;;;;;3.92;1.83;;;24.80;99.90;;;;;;5109556;28;20040;-85
2021/07/17 12:43:47;;;;;;;3.50;1.58;;;24.90;99.90;;;;;;5080083;28;20044;-82
2021/07/17 12:46:22;;;;;;;5.22;1.80;;;24.80;99.90;;;;;;5109709;28;20042;-82
2021/07/17 12:48:53;;;;;;;2.95;1.70;;;24.90;99.90;;;;;;5100010;28;20063;-86
2021/07/17 12:51:24;;;;;;;5.18;1.80;;;25.00;99.40;;;;;;5113966;28;20036;-83
2021/07/17 12:53:53;;;;;;;6.78;2.05;;;25.00;99.30;;;;;;5115010;28;20551;-81